createdAt,value
2018-03-02T21:45:35.333Z,29.25
2018-03-02T21:48:01.872Z,28.85
2018-03-02T21:50:29.350Z,32.60
2018-03-02T21:52:56.568Z,30.92
2018-03-02T21:55:23.047Z,30.40
2018-03-02T21:57:49.512Z,32.05
2018-03-02T22:00:16.012Z,33.75
2018-03-02T22:02:42.482Z,34.10
2018-03-02T22:05:08.989Z,29.15
2018-03-02T22:07:35.462Z,30.70
2018-03-02T22:10:01.937Z,33.05
2018-03-02T22:12:28.510Z,33.75
2018-03-02T22:14:54.979Z,32.92
2018-03-02T22:17:21.380Z,30.55
2018-03-02T22:19:47.990Z,28.02
2018-03-02T22:22:14.455Z,28.90
2018-03-02T22:24:40.905Z,28.40
2018-03-02T22:27:07.446Z,27.65
2018-03-02T22:29:34.589Z,32.05
2018-03-02T22:32:01.976Z,32.28
2018-03-02T22:34:28.483Z,34.90
2018-03-02T22:36:54.940Z,39.90
2018-03-02T22:39:21.417Z,33.70
2018-03-02T22:41:47.909Z,36.22
2018-03-02T22:44:14.458Z,33.65
2018-03-02T22:46:40.907Z,36.22
2018-03-02T22:49:07.369Z,37.45
2018-03-02T22:51:33.793Z,31.65
2018-03-02T22:54:00.251Z,33.85
2018-03-02T22:56:26.690Z,35.60
2018-03-02T22:58:53.564Z,32.65
2018-03-02T23:01:20.691Z,35.10
2018-03-02T23:03:47.162Z,37.03
2018-03-02T23:06:14.339Z,40.45
2018-03-02T23:08:40.740Z,35.50
2018-03-02T23:11:07.232Z,37.03
2018-03-02T23:13:33.595Z,40.70
2018-03-02T23:16:00.037Z,35.25
2018-03-02T23:18:26.470Z,34.50
2018-03-02T23:20:52.958Z,37.35
2018-03-02T23:23:19.357Z,42.78
2018-03-02T23:25:45.742Z,39.30
2018-03-02T23:28:12.186Z,42.15
2018-03-02T23:30:39.337Z,39.45
2018-03-02T23:33:06.502Z,43.95
2018-03-02T23:35:32.920Z,40.88
2018-03-02T23:37:59.353Z,40.83
2018-03-02T23:40:26.508Z,43.05
2018-03-02T23:42:52.971Z,43.58
2018-03-02T23:45:19.402Z,38.15
2018-03-02T23:47:45.787Z,42.08
2018-03-02T23:50:12.937Z,42.35
2018-03-02T23:52:39.341Z,38.22
2018-03-02T23:55:05.785Z,44.00
2018-03-02T23:57:32.176Z,43.17
2018-03-02T23:59:58.561Z,43.17
